createdAt,value
2018-11-13T00:01:52.160Z,13.15
2018-11-13T00:04:57.117Z,13.11
2018-11-13T00:08:02.081Z,13.18
2018-11-13T00:11:07.063Z,13.21
2018-11-13T00:14:12.049Z,13.10
2018-11-13T00:17:17.051Z,13.15
2018-11-13T00:20:22.005Z,13.27
2018-11-13T00:23:26.982Z,13.29
2018-11-13T00:26:31.969Z,13.33
2018-11-13T00:29:37.086Z,13.36
2018-11-13T00:32:42.507Z,13.31
2018-11-13T00:35:47.463Z,13.30
2018-11-13T00:38:52.437Z,13.29
2018-11-13T00:41:57.401Z,13.29
2018-11-13T00:45:02.465Z,13.18
2018-11-13T00:48:07.477Z,13.13
2018-11-13T00:51:12.442Z,13.23
2018-11-13T00:54:17.407Z,13.20
2018-11-13T00:57:22.358Z,13.20
2018-11-13T01:00:27.359Z,13.19
2018-11-13T01:03:32.379Z,13.19
2018-11-13T01:06:37.335Z,13.19
2018-11-13T01:09:42.331Z,13.28
2018-11-13T01:12:47.790Z,13.20
2018-11-13T01:15:52.749Z,13.22
2018-11-13T01:18:57.714Z,13.26
2018-11-13T01:22:02.658Z,13.13
2018-11-13T01:25:08.698Z,13.02
2018-11-13T01:28:13.649Z,13.02
2018-11-13T01:31:18.598Z,12.95
2018-11-13T01:34:30.481Z,13.00
2018-11-13T01:37:35.431Z,13.01
2018-11-13T01:40:40.394Z,13.01
2018-11-13T01:43:45.373Z,12.94
2018-11-13T01:46:50.354Z,12.95
2018-11-13T01:49:55.359Z,12.71
2018-11-13T01:53:00.340Z,12.75
2018-11-13T01:56:05.359Z,12.79
2018-11-13T01:59:10.346Z,12.77
2018-11-13T02:02:15.336Z,12.85
2018-11-13T02:05:21.520Z,12.92
2018-11-13T02:08:26.513Z,12.95
2018-11-13T02:11:31.493Z,12.87
2018-11-13T02:14:36.506Z,12.80
2018-11-13T02:17:41.479Z,12.75
2018-11-13T02:20:46.486Z,12.70
2018-11-13T02:23:51.457Z,12.75
2018-11-13T02:26:56.443Z,12.56
2018-11-13T02:30:01.450Z,12.65
2018-11-13T02:33:06.502Z,12.78
2018-11-13T02:36:11.487Z,12.82
2018-11-13T02:39:16.465Z,12.78
2018-11-13T02:42:21.430Z,12.67
2018-11-13T02:45:26.416Z,12.61
2018-11-13T02:48:31.450Z,12.66
2018-11-13T02:51:36.765Z,12.58
2018-11-13T02:54:41.783Z,12.52
2018-11-13T02:57:46.935Z,12.55
2018-11-13T03:00:51.936Z,12.59
2018-11-13T03:03:56.907Z,12.66
2018-11-13T03:07:01.895Z,12.55
2018-11-13T03:10:08.118Z,12.56
2018-11-13T03:13:13.113Z,12.51
2018-11-13T03:16:18.102Z,12.49
2018-11-13T03:19:23.082Z,12.48
2018-11-13T03:22:28.069Z,12.47
2018-11-13T03:25:33.189Z,12.45
2018-11-13T03:28:38.161Z,12.46
2018-11-13T03:31:43.179Z,12.39
2018-11-13T03:34:48.153Z,12.30
2018-11-13T03:37:53.136Z,12.25
2018-11-13T03:40:58.132Z,12.28
2018-11-13T03:44:03.110Z,12.32
2018-11-13T03:47:08.077Z,12.26
2018-11-13T03:50:15.624Z,12.29
2018-11-13T03:53:20.584Z,12.33
2018-11-13T03:56:25.576Z,12.31
2018-11-13T03:59:30.540Z,12.34
2018-11-13T04:02:35.549Z,12.36
2018-11-13T04:05:40.513Z,12.31
2018-11-13T04:08:45.615Z,12.32
2018-11-13T04:11:50.606Z,12.28
2018-11-13T04:14:55.550Z,12.19
2018-11-13T04:18:00.545Z,12.21
2018-11-13T04:21:05.529Z,12.17
2018-11-13T04:24:10.487Z,12.22
2018-11-13T04:27:15.445Z,12.15
2018-11-13T04:30:20.414Z,12.20
2018-11-13T04:33:25.387Z,12.16
2018-11-13T04:36:30.349Z,12.08
2018-11-13T04:39:35.309Z,12.11
2018-11-13T04:42:41.665Z,12.15
2018-11-13T04:45:46.614Z,12.13
2018-11-13T04:48:51.581Z,12.09
2018-11-13T04:51:56.538Z,12.07
2018-11-13T04:55:01.509Z,12.03
2018-11-13T04:58:07.670Z,12.06
2018-11-13T05:01:12.659Z,12.02
2018-11-13T05:04:17.612Z,11.96
2018-11-13T05:07:22.591Z,11.99
2018-11-13T05:10:27.555Z,12.05
2018-11-13T05:25:31.881Z,11.98
2018-11-13T05:28:36.923Z,11.94
2018-11-13T05:31:42.275Z,11.95
2018-11-13T05:34:47.249Z,11.83
2018-11-13T05:37:52.256Z,11.82
2018-11-13T05:40:57.255Z,11.78
2018-11-13T05:44:02.266Z,11.83
2018-11-13T05:47:07.432Z,11.72
2018-11-13T05:50:13.741Z,11.64
2018-11-13T05:53:18.727Z,11.55
2018-11-13T05:56:23.698Z,11.58
2018-11-13T05:59:28.681Z,11.55
2018-11-13T06:02:33.693Z,11.55
2018-11-13T06:05:38.665Z,11.56
2018-11-13T06:08:43.762Z,11.56
2018-11-13T06:11:49.197Z,11.54
2018-11-13T06:14:54.323Z,11.48
2018-11-13T06:17:59.427Z,11.46
2018-11-13T06:21:10.729Z,11.44
2018-11-13T06:24:15.737Z,11.41
2018-11-13T06:27:21.176Z,11.49
2018-11-13T06:30:26.367Z,11.40
2018-11-13T06:33:31.406Z,11.35
2018-11-13T06:36:36.454Z,11.38
2018-11-13T06:39:41.468Z,11.34
2018-11-13T06:42:46.460Z,11.39
2018-11-13T06:45:51.459Z,11.37
2018-11-13T06:48:56.528Z,11.30
2018-11-13T06:52:01.489Z,11.30
2018-11-13T06:55:10.130Z,11.28
2018-11-13T06:58:15.114Z,11.34
2018-11-13T07:01:20.238Z,11.33
2018-11-13T07:04:25.308Z,11.27
2018-11-13T07:07:30.327Z,11.31
2018-11-13T07:10:35.472Z,11.32
2018-11-13T07:13:40.613Z,11.36
2018-11-13T07:16:45.629Z,11.36
2018-11-13T07:19:50.989Z,11.43
2018-11-13T07:22:56.000Z,11.42
2018-11-13T07:26:01.032Z,11.42
2018-11-13T07:29:06.051Z,11.41
2018-11-13T07:32:11.119Z,11.33
2018-11-13T07:35:17.327Z,11.48
2018-11-13T07:38:22.305Z,11.49
2018-11-13T07:41:27.326Z,11.46
2018-11-13T07:44:32.366Z,11.49
2018-11-13T07:47:37.641Z,11.50
2018-11-13T07:50:42.372Z,11.56
2018-11-13T07:53:49.045Z,11.50
2018-11-13T07:56:54.054Z,11.45
2018-11-13T07:59:59.123Z,11.30
2018-11-13T08:03:42.406Z,11.24
2018-11-13T08:06:47.566Z,11.20
2018-11-13T08:09:52.528Z,11.35
2018-11-13T08:12:57.740Z,11.37
2018-11-13T08:16:02.591Z,11.47
2018-11-13T08:19:07.605Z,11.58
2018-11-13T08:22:12.646Z,11.52
2018-11-13T08:25:17.737Z,11.57
2018-11-13T08:28:22.789Z,11.55
2018-11-13T08:31:33.321Z,11.51
2018-11-13T08:34:38.312Z,11.33
2018-11-13T08:37:43.287Z,11.48
2018-11-13T08:40:48.278Z,11.47
2018-11-13T08:43:53.323Z,11.51
2018-11-13T08:46:58.318Z,11.49
2018-11-13T08:50:03.446Z,11.66
2018-11-13T08:53:08.474Z,11.69
2018-11-13T08:56:13.468Z,11.72
2018-11-13T08:59:18.667Z,11.97
2018-11-13T09:02:23.527Z,12.15
2018-11-13T09:05:28.526Z,12.37
2018-11-13T09:08:33.520Z,12.60
2018-11-13T09:11:38.638Z,12.55
2018-11-13T09:14:43.569Z,12.34
2018-11-13T09:17:48.578Z,12.16
2018-11-13T09:20:53.558Z,12.32
2018-11-13T09:23:58.546Z,12.40
2018-11-13T09:27:04.114Z,12.19
2018-11-13T09:30:11.841Z,12.07
2018-11-13T09:33:16.692Z,11.97
2018-11-13T09:36:22.212Z,12.13
2018-11-13T09:39:27.216Z,11.95
2018-11-13T09:42:32.183Z,11.82
2018-11-13T09:45:37.174Z,11.78
2018-11-13T09:48:42.441Z,11.86
2018-11-13T09:51:47.437Z,12.11
2018-11-13T09:54:52.512Z,12.25
2018-11-13T09:57:57.711Z,12.75
2018-11-13T10:01:02.912Z,12.88
2018-11-13T10:04:08.181Z,13.71
2018-11-13T10:07:12.780Z,13.57
2018-11-13T10:10:17.797Z,13.66
2018-11-13T10:13:22.823Z,13.65
2018-11-13T10:16:27.796Z,14.03
2018-11-13T10:19:32.781Z,14.20
2018-11-13T10:22:37.790Z,14.41
2018-11-13T10:25:42.791Z,14.35
2018-11-13T10:28:47.791Z,14.22
2018-11-13T10:31:52.802Z,14.06
2018-11-13T10:34:57.793Z,13.76
2018-11-13T10:38:02.779Z,13.58
2018-11-13T10:41:07.820Z,13.52
2018-11-13T10:44:12.765Z,13.76
2018-11-13T10:47:17.742Z,14.16
2018-11-13T10:50:23.984Z,14.61
2018-11-13T10:53:28.919Z,14.74
2018-11-13T10:56:33.954Z,14.56
2018-11-13T10:59:39.140Z,14.22
2018-11-13T11:02:49.975Z,14.59
2018-11-13T11:05:54.943Z,15.13
2018-11-13T11:08:59.939Z,15.62
2018-11-13T11:12:05.510Z,15.65
2018-11-13T11:15:10.523Z,15.85
2018-11-13T11:18:15.554Z,16.01
2018-11-13T11:21:20.495Z,15.76
2018-11-13T11:24:25.473Z,15.71
2018-11-13T11:27:43.611Z,15.78
2018-11-13T11:30:48.561Z,15.80
2018-11-13T11:33:53.614Z,16.10
2018-11-13T11:36:58.665Z,15.55
2018-11-13T11:40:04.026Z,15.46
2018-11-13T11:43:09.026Z,14.84
2018-11-13T11:46:14.019Z,14.23
2018-11-13T11:49:19.040Z,13.73
2018-11-13T11:52:24.058Z,14.22
2018-11-13T11:55:29.110Z,14.60
2018-11-13T11:58:34.178Z,15.18
2018-11-13T12:01:39.216Z,15.45
2018-11-13T12:04:44.210Z,15.49
2018-11-13T12:07:54.789Z,15.38
2018-11-13T12:36:08.316Z,15.48
2018-11-13T12:39:13.403Z,15.51
2018-11-13T12:42:18.518Z,14.79
2018-11-13T12:45:23.733Z,14.77
2018-11-13T12:48:28.722Z,15.22
2018-11-13T12:51:34.474Z,15.75
2018-11-13T12:54:39.533Z,15.60
2018-11-13T12:57:44.694Z,14.92
2018-11-13T13:00:49.669Z,15.19
2018-11-13T13:03:54.690Z,15.33
2018-11-13T13:06:59.670Z,14.96
2018-11-13T13:10:07.097Z,14.71
2018-11-13T13:13:12.123Z,14.34
2018-11-13T13:16:17.090Z,14.35
2018-11-13T13:19:22.065Z,14.38
2018-11-13T13:22:27.083Z,14.18
2018-11-13T13:25:32.060Z,14.23
2018-11-13T13:28:37.027Z,14.26
2018-11-13T13:31:42.034Z,14.53
2018-11-13T13:34:48.754Z,14.50
2018-11-13T13:37:53.737Z,14.21
2018-11-13T13:40:59.874Z,13.98
2018-11-13T13:44:05.011Z,13.88
2018-11-13T13:47:10.021Z,14.15
2018-11-13T13:50:15.054Z,13.93
2018-11-13T13:53:20.710Z,13.96
2018-11-13T13:56:25.792Z,13.77
2018-11-13T13:59:30.846Z,13.61
2018-11-13T14:02:35.807Z,13.53
2018-11-13T14:05:41.225Z,13.51
2018-11-13T14:08:46.204Z,13.46
2018-11-13T14:11:51.194Z,13.23
2018-11-13T14:14:56.411Z,13.23
2018-11-13T14:18:01.403Z,13.07
2018-11-13T14:21:06.508Z,13.04
2018-11-13T14:24:11.477Z,12.98
2018-11-13T14:27:16.473Z,13.04
2018-11-13T14:30:23.409Z,12.96
2018-11-13T14:33:28.460Z,13.00
2018-11-13T14:38:03.053Z,13.00
2018-11-13T14:41:08.021Z,12.78
2018-11-13T14:44:13.018Z,12.73
2018-11-13T14:47:18.001Z,12.68
2018-11-13T14:50:24.450Z,12.62
2018-11-13T14:53:29.454Z,12.55
2018-11-13T14:56:34.485Z,12.55
2018-11-13T14:59:39.477Z,12.46
2018-11-13T15:02:50.812Z,12.33
2018-11-13T15:05:55.830Z,12.11
2018-11-13T15:09:00.843Z,12.06
2018-11-13T15:12:06.014Z,12.03
2018-11-13T15:15:11.325Z,11.86
2018-11-13T15:21:46.911Z,11.52
2018-11-13T15:24:51.926Z,11.57
2018-11-13T15:27:56.912Z,11.48
2018-11-13T15:31:02.233Z,11.51
2018-11-13T15:34:07.121Z,11.38
2018-11-13T15:37:12.090Z,11.32
2018-11-13T15:40:19.870Z,11.31
2018-11-13T15:43:24.869Z,11.35
2018-11-13T15:46:29.859Z,11.21
2018-11-13T15:49:35.050Z,11.16
2018-11-13T15:52:40.099Z,11.06
2018-11-13T15:55:45.098Z,11.10
2018-11-13T15:58:50.118Z,11.07
2018-11-13T16:01:55.237Z,10.96
2018-11-13T16:05:00.957Z,10.92
2018-11-13T16:08:07.092Z,10.66
2018-11-13T16:11:12.137Z,10.67
2018-11-13T16:14:17.166Z,10.59
2018-11-13T16:17:22.256Z,10.57
2018-11-13T16:20:27.541Z,10.55
2018-11-13T16:23:32.570Z,10.44
2018-11-13T16:26:37.618Z,10.40
2018-11-13T16:29:42.697Z,10.53
2018-11-13T16:32:48.566Z,10.43
2018-11-13T16:35:53.554Z,10.52
2018-11-13T16:38:58.605Z,10.41
2018-11-13T16:42:03.857Z,10.37
2018-11-13T16:45:10.047Z,10.31
2018-11-13T16:48:15.232Z,10.31
2018-11-13T16:51:20.415Z,10.20
2018-11-13T16:54:30.282Z,10.09
2018-11-13T16:57:35.330Z,9.89
2018-11-13T17:00:40.591Z,9.73
2018-11-13T17:03:45.601Z,9.73
2018-11-13T17:06:50.737Z,9.57
2018-11-13T17:09:55.626Z,9.58
2018-11-13T17:13:07.201Z,9.45
2018-11-13T17:16:12.265Z,9.31
2018-11-13T17:19:17.235Z,9.17
2018-11-13T17:22:22.275Z,9.12
2018-11-13T17:25:28.760Z,9.01
2018-11-13T17:28:33.732Z,8.90
2018-11-13T17:31:39.013Z,8.78
2018-11-13T17:34:44.097Z,8.68
2018-11-13T17:37:49.875Z,8.61
2018-11-13T17:40:54.881Z,8.56
2018-11-13T17:43:59.913Z,8.47
2018-11-13T17:47:05.656Z,8.38
2018-11-13T17:50:15.085Z,8.25
2018-11-13T17:53:20.396Z,8.18
2018-11-13T17:56:25.605Z,8.02
2018-11-13T17:59:31.118Z,7.90
2018-11-13T18:02:36.213Z,7.72
2018-11-13T18:05:41.949Z,7.64
2018-11-13T18:08:47.172Z,7.57
2018-11-13T18:11:52.286Z,7.57
2018-11-13T18:15:08.583Z,7.55
2018-11-13T18:18:13.622Z,7.52
2018-11-13T18:21:18.724Z,7.45
2018-11-13T18:24:24.262Z,7.45
2018-11-13T18:27:29.466Z,7.38
2018-11-13T18:30:35.878Z,7.33
2018-11-13T18:33:40.873Z,7.23
2018-11-13T18:36:45.930Z,7.18
2018-11-13T18:39:51.037Z,7.07
2018-11-13T18:42:57.474Z,7.06
2018-11-13T18:46:02.537Z,7.05
2018-11-13T18:49:07.569Z,6.94
2018-11-13T18:52:12.718Z,6.97
2018-11-13T18:55:17.937Z,6.95
2018-11-13T18:58:23.054Z,6.84
2018-11-13T19:01:28.240Z,6.74
2018-11-13T19:04:33.577Z,6.73
2018-11-13T19:07:39.099Z,6.72
2018-11-13T19:10:45.434Z,6.70
2018-11-13T19:13:50.532Z,6.63
2018-11-13T19:16:55.725Z,6.59
2018-11-13T19:20:00.826Z,6.58
2018-11-13T19:23:05.964Z,6.51
2018-11-13T19:26:10.986Z,6.36
2018-11-13T19:29:16.125Z,6.25
2018-11-13T19:32:22.601Z,6.08
2018-11-13T19:35:28.068Z,6.11
2018-11-13T19:38:32.982Z,6.17
2018-11-13T19:41:44.358Z,6.30
2018-11-13T19:44:49.903Z,6.26
2018-11-13T19:47:54.611Z,6.22
2018-11-13T19:50:59.764Z,6.28
2018-11-13T19:54:05.271Z,6.22
2018-11-13T19:57:10.415Z,6.19
2018-11-13T20:00:21.748Z,6.23
2018-11-13T20:03:26.931Z,6.22
2018-11-13T20:06:32.114Z,6.16
2018-11-13T20:09:37.191Z,6.15
2018-11-13T20:12:43.025Z,6.13
2018-11-13T20:15:48.126Z,6.12
2018-11-13T20:18:53.345Z,6.10
2018-11-13T20:25:31.702Z,5.97
2018-11-13T20:28:36.806Z,5.97
2018-11-13T20:31:41.794Z,5.96
2018-11-13T20:34:57.414Z,5.91
2018-11-13T20:38:02.976Z,5.87
2018-11-13T20:41:07.992Z,5.88
2018-11-13T20:47:43.951Z,5.69
2018-11-13T20:50:48.962Z,5.66
2018-11-13T20:53:54.316Z,5.65
2018-11-13T20:56:59.314Z,5.66
2018-11-13T21:00:07.046Z,5.65
2018-11-13T21:03:12.029Z,5.64
2018-11-13T21:06:20.898Z,5.62
2018-11-13T21:09:25.908Z,5.59
2018-11-13T21:15:07.341Z,5.31
2018-11-13T21:18:12.339Z,5.26
2018-11-13T21:21:20.367Z,5.26
2018-11-13T21:24:25.743Z,5.30
2018-11-13T21:27:30.894Z,5.30
2018-11-13T21:30:35.962Z,5.23
2018-11-13T21:33:40.842Z,5.14
2018-11-13T21:36:45.838Z,5.11
2018-11-13T21:39:50.826Z,5.07
2018-11-13T21:42:56.287Z,5.06
2018-11-13T21:46:01.213Z,5.03
2018-11-13T21:49:06.253Z,4.97
2018-11-13T21:52:11.205Z,4.96
2018-11-13T21:55:17.741Z,4.96
2018-11-13T21:58:22.705Z,4.87
2018-11-13T22:01:27.776Z,4.80
2018-11-13T22:04:32.840Z,4.64
2018-11-13T22:07:38.069Z,4.60
2018-11-13T22:10:43.024Z,4.65
2018-11-13T22:13:48.257Z,4.54
2018-11-13T22:16:53.434Z,4.33
2018-11-13T22:19:58.547Z,4.37
2018-11-13T22:23:03.197Z,4.41
2018-11-13T22:26:08.151Z,4.46
2018-11-13T22:29:13.208Z,4.45
2018-11-13T22:32:18.111Z,4.43
2018-11-13T22:35:23.428Z,4.43
2018-11-13T22:38:28.421Z,4.42
2018-11-13T22:41:33.386Z,4.42
2018-11-13T22:44:38.358Z,4.40
2018-11-13T22:47:43.352Z,4.30
2018-11-13T22:50:48.393Z,4.20
2018-11-13T22:53:53.364Z,4.14
2018-11-13T22:56:58.302Z,4.16
2018-11-13T23:03:08.017Z,4.16
2018-11-13T23:06:12.999Z,4.12
2018-11-13T23:09:17.976Z,4.09
2018-11-13T23:12:22.932Z,3.98
2018-11-13T23:15:27.931Z,3.96
2018-11-13T23:18:32.929Z,3.91
2018-11-13T23:21:37.921Z,3.87
2018-11-13T23:24:42.927Z,3.88
2018-11-13T23:27:49.015Z,3.85
2018-11-13T23:30:54.133Z,3.77
2018-11-13T23:33:59.012Z,3.74
2018-11-13T23:37:03.985Z,3.72
2018-11-13T23:40:10.853Z,3.69
2018-11-13T23:43:15.821Z,3.70
2018-11-13T23:46:20.833Z,3.67
2018-11-13T23:49:25.838Z,3.61
2018-11-13T23:52:31.142Z,3.58
2018-11-13T23:55:36.164Z,3.56
2018-11-13T23:58:41.077Z,3.57
